Mayo, South Carolina
Current Conditions -  °F | °C
As of 5:35 AM on Thursday 27 Nov 2014 (Local Time) from KSPA Reporting Station
Clear Clear  
Wind Chill: 35°   Ceiling: Unl
Heat Index: 39°   Visibility: 10mi
Dew Point: 32°   Wind: 6mph
Humidity: 75%   Direction: 230°SW
Pressure: 29.99"   Gusts: NA
Location:  35.08°N, 81.86°W
Report Text: KSPA 271035Z AUTO 23005KT 10SM CLR 04/00 A2999 RMK AO2
Loading
Personal Weather Stations






























Interactive Weather Map New forecast layout! Learn more

10-Day Weather Forecast

Advertisements
Track Severe Weather on mobile